sensor_id;sensor_type;location;lat;lon;timestamp;P1;durP1;ratioP1;P2;durP2;ratioP2
5077;SDS011;2557;51.390;7.494;2022-08-02T00:01:22;6.27;;;5.67;;
5077;SDS011;2557;51.390;7.494;2022-08-02T00:03:48;6.33;;;5.30;;
5077;SDS011;2557;51.390;7.494;2022-08-02T00:06:14;5.43;;;4.97;;
5077;SDS011;2557;51.390;7.494;2022-08-02T00:08:40;5.80;;;5.20;;
5077;SDS011;2557;51.390;7.494;2022-08-02T00:11:06;5.57;;;5.07;;
5077;SDS011;2557;51.390;7.494;2022-08-02T00:13:32;5.63;;;5.20;;
5077;SDS011;2557;51.390;7.494;2022-08-02T00:15:58;8.10;;;5.00;;
5077;SDS011;2557;51.390;7.494;2022-08-02T00:18:24;5.50;;;5.00;;
5077;SDS011;2557;51.390;7.494;2022-08-02T00:20:50;5.90;;;5.13;;
5077;SDS011;2557;51.390;7.494;2022-08-02T00:23:16;5.57;;;5.10;;
5077;SDS011;2557;51.390;7.494;2022-08-02T00:25:42;5.83;;;5.43;;
5077;SDS011;2557;51.390;7.494;2022-08-02T00:28:08;6.00;;;5.60;;
5077;SDS011;2557;51.390;7.494;2022-08-02T00:30:35;5.40;;;4.90;;
5077;SDS011;2557;51.390;7.494;2022-08-02T00:33:01;5.90;;;5.40;;
5077;SDS011;2557;51.390;7.494;2022-08-02T00:35:29;5.27;;;4.87;;
5077;SDS011;2557;51.390;7.494;2022-08-02T00:37:55;9.83;;;5.43;;
5077;SDS011;2557;51.390;7.494;2022-08-02T00:40:21;6.53;;;5.60;;
5077;SDS011;2557;51.390;7.494;2022-08-02T00:42:57;5.93;;;5.33;;
5077;SDS011;2557;51.390;7.494;2022-08-02T00:45:24;5.40;;;5.10;;
5077;SDS011;2557;51.390;7.494;2022-08-02T00:47:50;6.53;;;5.70;;
5077;SDS011;2557;51.390;7.494;2022-08-02T00:50:16;6.37;;;5.70;;
5077;SDS011;2557;51.390;7.494;2022-08-02T00:52:42;9.10;;;5.90;;
5077;SDS011;2557;51.390;7.494;2022-08-02T00:55:08;5.70;;;5.20;;
5077;SDS011;2557;51.390;7.494;2022-08-02T00:57:34;8.80;;;5.67;;
5077;SDS011;2557;51.390;7.494;2022-08-02T01:00:00;5.53;;;5.13;;
5077;SDS011;2557;51.390;7.494;2022-08-02T01:02:26;7.13;;;5.17;;
5077;SDS011;2557;51.390;7.494;2022-08-02T01:04:52;6.50;;;5.30;;
5077;SDS011;2557;51.390;7.494;2022-08-02T01:07:18;5.80;;;4.83;;
5077;SDS011;2557;51.390;7.494;2022-08-02T01:09:45;8.93;;;5.77;;
5077;SDS011;2557;51.390;7.494;2022-08-02T01:12:11;6.47;;;5.87;;
5077;SDS011;2557;51.390;7.494;2022-08-02T01:14:37;5.77;;;5.37;;
5077;SDS011;2557;51.390;7.494;2022-08-02T01:20:33;6.03;;;5.53;;
5077;SDS011;2557;51.390;7.494;2022-08-02T01:28:08;7.60;;;5.50;;
5077;SDS011;2557;51.390;7.494;2022-08-02T01:30:41;8.23;;;5.30;;
5077;SDS011;2557;51.390;7.494;2022-08-02T01:33:09;6.37;;;5.77;;
5077;SDS011;2557;51.390;7.494;2022-08-02T01:35:40;6.27;;;5.87;;
5077;SDS011;2557;51.390;7.494;2022-08-02T01:38:08;9.13;;;5.43;;
5077;SDS011;2557;51.390;7.494;2022-08-02T01:40:36;5.63;;;4.97;;
5077;SDS011;2557;51.390;7.494;2022-08-02T01:43:04;6.07;;;5.67;;
5077;SDS011;2557;51.390;7.494;2022-08-02T01:45:32;8.33;;;5.90;;
5077;SDS011;2557;51.390;7.494;2022-08-02T01:47:59;6.10;;;5.50;;
5077;SDS011;2557;51.390;7.494;2022-08-02T01:50:27;6.37;;;5.63;;
5077;SDS011;2557;51.390;7.494;2022-08-02T01:52:57;6.63;;;5.60;;
5077;SDS011;2557;51.390;7.494;2022-08-02T01:56:05;8.80;;;6.37;;
5077;SDS011;2557;51.390;7.494;2022-08-02T01:58:13;5.57;;;5.10;;
5077;SDS011;2557;51.390;7.494;2022-08-02T02:00:41;10.33;;;5.80;;
5077;SDS011;2557;51.390;7.494;2022-08-02T02:03:08;8.40;;;6.37;;
5077;SDS011;2557;51.390;7.494;2022-08-02T02:05:35;10.00;;;5.90;;
5077;SDS011;2557;51.390;7.494;2022-08-02T02:08:01;7.73;;;5.93;;
5077;SDS011;2557;51.390;7.494;2022-08-02T02:10:29;6.20;;;5.70;;
5077;SDS011;2557;51.390;7.494;2022-08-02T02:13:03;7.97;;;6.63;;
5077;SDS011;2557;51.390;7.494;2022-08-02T02:15:30;10.33;;;5.80;;
5077;SDS011;2557;51.390;7.494;2022-08-02T02:17:56;7.03;;;6.40;;
5077;SDS011;2557;51.390;7.494;2022-08-02T02:20:23;6.20;;;5.70;;
5077;SDS011;2557;51.390;7.494;2022-08-02T02:22:49;7.10;;;6.60;;
5077;SDS011;2557;51.390;7.494;2022-08-02T02:25:17;7.67;;;5.80;;
5077;SDS011;2557;51.390;7.494;2022-08-02T02:27:45;11.53;;;5.17;;
5077;SDS011;2557;51.390;7.494;2022-08-02T02:30:13;6.07;;;5.57;;
5077;SDS011;2557;51.390;7.494;2022-08-02T02:32:40;7.10;;;5.43;;
5077;SDS011;2557;51.390;7.494;2022-08-02T02:35:06;6.83;;;6.10;;
5077;SDS011;2557;51.390;7.494;2022-08-02T02:37:33;6.70;;;5.70;;
5077;SDS011;2557;51.390;7.494;2022-08-02T02:40:01;8.43;;;5.80;;
5077;SDS011;2557;51.390;7.494;2022-08-02T02:42:28;7.70;;;5.93;;
5077;SDS011;2557;51.390;7.494;2022-08-02T02:44:55;5.47;;;5.00;;
5077;SDS011;2557;51.390;7.494;2022-08-02T02:47:22;7.70;;;5.90;;
5077;SDS011;2557;51.390;7.494;2022-08-02T02:49:48;8.87;;;5.50;;
5077;SDS011;2557;51.390;7.494;2022-08-02T02:52:16;6.63;;;6.03;;
5077;SDS011;2557;51.390;7.494;2022-08-02T02:54:44;7.20;;;5.97;;
5077;SDS011;2557;51.390;7.494;2022-08-02T02:57:10;6.23;;;5.73;;
5077;SDS011;2557;51.390;7.494;2022-08-02T02:59:37;5.93;;;5.50;;
5077;SDS011;2557;51.390;7.494;2022-08-02T03:02:03;6.70;;;6.10;;
5077;SDS011;2557;51.390;7.494;2022-08-02T03:04:30;6.13;;;5.73;;
5077;SDS011;2557;51.390;7.494;2022-08-02T03:06:56;5.93;;;5.43;;
5077;SDS011;2557;51.390;7.494;2022-08-02T03:09:22;6.30;;;5.70;;
5077;SDS011;2557;51.390;7.494;2022-08-02T03:11:48;5.63;;;5.10;;
5077;SDS011;2557;51.390;7.494;2022-08-02T03:14:15;7.53;;;6.10;;
5077;SDS011;2557;51.390;7.494;2022-08-02T03:16:45;10.73;;;5.27;;
5077;SDS011;2557;51.390;7.494;2022-08-02T03:19:11;9.33;;;5.37;;
5077;SDS011;2557;51.390;7.494;2022-08-02T03:21:38;6.83;;;6.10;;
5077;SDS011;2557;51.390;7.494;2022-08-02T03:24:04;6.23;;;5.17;;
5077;SDS011;2557;51.390;7.494;2022-08-02T03:26:30;6.63;;;5.97;;
5077;SDS011;2557;51.390;7.494;2022-08-02T03:28:56;6.20;;;5.70;;
5077;SDS011;2557;51.390;7.494;2022-08-02T03:31:22;11.83;;;5.97;;
5077;SDS011;2557;51.390;7.494;2022-08-02T03:33:48;7.20;;;6.20;;
5077;SDS011;2557;51.390;7.494;2022-08-02T03:36:15;8.40;;;6.43;;
5077;SDS011;2557;51.390;7.494;2022-08-02T03:38:43;5.63;;;5.23;;
5077;SDS011;2557;51.390;7.494;2022-08-02T03:41:10;6.03;;;5.53;;
5077;SDS011;2557;51.390;7.494;2022-08-02T03:43:37;9.43;;;5.83;;
5077;SDS011;2557;51.390;7.494;2022-08-02T03:46:04;6.27;;;5.67;;
5077;SDS011;2557;51.390;7.494;2022-08-02T03:48:31;6.20;;;5.60;;
5077;SDS011;2557;51.390;7.494;2022-08-02T03:50:58;6.63;;;5.93;;
5077;SDS011;2557;51.390;7.494;2022-08-02T03:53:24;6.10;;;5.50;;
5077;SDS011;2557;51.390;7.494;2022-08-02T03:55:50;6.97;;;6.23;;
5077;SDS011;2557;51.390;7.494;2022-08-02T03:58:19;7.03;;;6.33;;
5077;SDS011;2557;51.390;7.494;2022-08-02T04:00:46;6.80;;;6.30;;
5077;SDS011;2557;51.390;7.494;2022-08-02T04:03:12;7.17;;;6.37;;
5077;SDS011;2557;51.390;7.494;2022-08-02T04:05:38;7.50;;;6.80;;
5077;SDS011;2557;51.390;7.494;2022-08-02T04:08:04;6.67;;;6.00;;
5077;SDS011;2557;51.390;7.494;2022-08-02T04:10:31;7.00;;;5.90;;
5077;SDS011;2557;51.390;7.494;2022-08-02T04:13:17;7.10;;;6.50;;
5077;SDS011;2557;51.390;7.494;2022-08-02T04:15:44;7.50;;;6.80;;
5077;SDS011;2557;51.390;7.494;2022-08-02T04:18:11;7.97;;;7.27;;
5077;SDS011;2557;51.390;7.494;2022-08-02T04:20:37;11.03;;;7.30;;
5077;SDS011;2557;51.390;7.494;2022-08-02T04:23:04;8.20;;;7.23;;
5077;SDS011;2557;51.390;7.494;2022-08-02T04:25:31;8.23;;;6.20;;
5077;SDS011;2557;51.390;7.494;2022-08-02T04:27:58;7.47;;;6.30;;
5077;SDS011;2557;51.390;7.494;2022-08-02T04:30:24;7.00;;;6.37;;
5077;SDS011;2557;51.390;7.494;2022-08-02T04:32:51;7.93;;;7.23;;
5077;SDS011;2557;51.390;7.494;2022-08-02T04:35:17;6.47;;;6.00;;
5077;SDS011;2557;51.390;7.494;2022-08-02T04:37:43;9.70;;;6.90;;
5077;SDS011;2557;51.390;7.494;2022-08-02T04:40:10;7.37;;;6.67;;
5077;SDS011;2557;51.390;7.494;2022-08-02T04:42:36;7.33;;;6.00;;
5077;SDS011;2557;51.390;7.494;2022-08-02T04:45:03;7.57;;;6.87;;
5077;SDS011;2557;51.390;7.494;2022-08-02T04:47:29;8.00;;;7.20;;
5077;SDS011;2557;51.390;7.494;2022-08-02T04:49:55;7.10;;;6.53;;
5077;SDS011;2557;51.390;7.494;2022-08-02T04:52:21;10.30;;;7.57;;
5077;SDS011;2557;51.390;7.494;2022-08-02T04:54:47;8.97;;;7.40;;
5077;SDS011;2557;51.390;7.494;2022-08-02T04:57:15;6.77;;;6.17;;
5077;SDS011;2557;51.390;7.494;2022-08-02T04:59:59;6.97;;;6.37;;
5077;SDS011;2557;51.390;7.494;2022-08-02T05:02:25;7.23;;;6.53;;
5077;SDS011;2557;51.390;7.494;2022-08-02T05:04:51;8.50;;;7.80;;
5077;SDS011;2557;51.390;7.494;2022-08-02T05:07:17;11.27;;;7.93;;
5077;SDS011;2557;51.390;7.494;2022-08-02T05:09:43;10.03;;;8.20;;
5077;SDS011;2557;51.390;7.494;2022-08-02T05:12:09;8.53;;;7.83;;
5077;SDS011;2557;51.390;7.494;2022-08-02T05:14:35;8.87;;;8.07;;
5077;SDS011;2557;51.390;7.494;2022-08-02T05:17:01;7.80;;;7.17;;
5077;SDS011;2557;51.390;7.494;2022-08-02T05:19:27;7.53;;;6.30;;
5077;SDS011;2557;51.390;7.494;2022-08-02T05:21:53;6.80;;;6.20;;
5077;SDS011;2557;51.390;7.494;2022-08-02T05:24:19;7.10;;;6.50;;
5077;SDS011;2557;51.390;7.494;2022-08-02T05:26:45;7.30;;;6.50;;
5077;SDS011;2557;51.390;7.494;2022-08-02T05:29:11;6.93;;;5.80;;
5077;SDS011;2557;51.390;7.494;2022-08-02T05:31:37;13.13;;;7.27;;
5077;SDS011;2557;51.390;7.494;2022-08-02T05:34:03;9.33;;;8.40;;
5077;SDS011;2557;51.390;7.494;2022-08-02T05:36:29;8.40;;;7.60;;
5077;SDS011;2557;51.390;7.494;2022-08-02T05:38:55;6.50;;;6.00;;
5077;SDS011;2557;51.390;7.494;2022-08-02T05:41:21;8.00;;;7.03;;
5077;SDS011;2557;51.390;7.494;2022-08-02T05:43:47;9.23;;;8.33;;
5077;SDS011;2557;51.390;7.494;2022-08-02T05:46:13;6.90;;;6.30;;
5077;SDS011;2557;51.390;7.494;2022-08-02T05:48:39;7.30;;;6.60;;
5077;SDS011;2557;51.390;7.494;2022-08-02T05:51:07;6.80;;;6.20;;
5077;SDS011;2557;51.390;7.494;2022-08-02T05:53:36;7.50;;;6.87;;
5077;SDS011;2557;51.390;7.494;2022-08-02T05:56:08;8.70;;;6.10;;
5077;SDS011;2557;51.390;7.494;2022-08-02T05:58:39;7.43;;;6.50;;
5077;SDS011;2557;51.390;7.494;2022-08-02T06:01:09;5.80;;;5.40;;
5077;SDS011;2557;51.390;7.494;2022-08-02T06:03:39;7.80;;;7.10;;
5077;SDS011;2557;51.390;7.494;2022-08-02T06:06:11;10.17;;;7.50;;
5077;SDS011;2557;51.390;7.494;2022-08-02T06:08:41;12.23;;;9.87;;
5077;SDS011;2557;51.390;7.494;2022-08-02T06:11:09;13.10;;;10.40;;
5077;SDS011;2557;51.390;7.494;2022-08-02T06:13:36;16.50;;;11.50;;
5077;SDS011;2557;51.390;7.494;2022-08-02T06:16:02;19.20;;;12.27;;
5077;SDS011;2557;51.390;7.494;2022-08-02T06:18:29;15.30;;;12.13;;
5077;SDS011;2557;51.390;7.494;2022-08-02T06:20:57;16.47;;;9.43;;
5077;SDS011;2557;51.390;7.494;2022-08-02T06:23:24;14.20;;;12.27;;
5077;SDS011;2557;51.390;7.494;2022-08-02T06:25:50;13.67;;;9.90;;
5077;SDS011;2557;51.390;7.494;2022-08-02T06:28:18;16.57;;;8.90;;
5077;SDS011;2557;51.390;7.494;2022-08-02T06:30:44;14.80;;;11.20;;
5077;SDS011;2557;51.390;7.494;2022-08-02T06:33:10;16.47;;;11.07;;
5077;SDS011;2557;51.390;7.494;2022-08-02T06:38:24;17.57;;;12.37;;
5077;SDS011;2557;51.390;7.494;2022-08-02T06:40:55;17.50;;;10.57;;
5077;SDS011;2557;51.390;7.494;2022-08-02T06:45:53;9.70;;;8.70;;
5077;SDS011;2557;51.390;7.494;2022-08-02T06:48:19;9.07;;;8.17;;
5077;SDS011;2557;51.390;7.494;2022-08-02T06:50:45;8.00;;;6.83;;
5077;SDS011;2557;51.390;7.494;2022-08-02T06:53:11;8.37;;;7.47;;
5077;SDS011;2557;51.390;7.494;2022-08-02T06:55:37;10.60;;;9.23;;
5077;SDS011;2557;51.390;7.494;2022-08-02T06:58:03;9.30;;;6.70;;
5077;SDS011;2557;51.390;7.494;2022-08-02T07:00:29;18.97;;;10.70;;
5077;SDS011;2557;51.390;7.494;2022-08-02T07:02:56;15.03;;;9.27;;
5077;SDS011;2557;51.390;7.494;2022-08-02T07:05:22;13.67;;;10.43;;
5077;SDS011;2557;51.390;7.494;2022-08-02T07:07:48;16.97;;;9.93;;
5077;SDS011;2557;51.390;7.494;2022-08-02T07:10:14;12.07;;;5.87;;
5077;SDS011;2557;51.390;7.494;2022-08-02T07:12:40;13.30;;;6.33;;
5077;SDS011;2557;51.390;7.494;2022-08-02T07:15:07;7.90;;;6.90;;
5077;SDS011;2557;51.390;7.494;2022-08-02T07:17:34;8.13;;;6.33;;
5077;SDS011;2557;51.390;7.494;2022-08-02T07:20:00;15.60;;;8.10;;
5077;SDS011;2557;51.390;7.494;2022-08-02T07:22:27;9.10;;;6.53;;
5077;SDS011;2557;51.390;7.494;2022-08-02T07:24:54;7.83;;;5.60;;
5077;SDS011;2557;51.390;7.494;2022-08-02T07:27:21;10.80;;;6.87;;
5077;SDS011;2557;51.390;7.494;2022-08-02T07:29:47;11.60;;;6.87;;
5077;SDS011;2557;51.390;7.494;2022-08-02T07:32:14;9.83;;;7.40;;
5077;SDS011;2557;51.390;7.494;2022-08-02T07:34:40;9.33;;;5.93;;
5077;SDS011;2557;51.390;7.494;2022-08-02T07:37:06;9.50;;;5.90;;
5077;SDS011;2557;51.390;7.494;2022-08-02T07:39:33;8.70;;;6.20;;
5077;SDS011;2557;51.390;7.494;2022-08-02T07:41:59;9.47;;;6.30;;
5077;SDS011;2557;51.390;7.494;2022-08-02T07:44:25;9.57;;;6.27;;
5077;SDS011;2557;51.390;7.494;2022-08-02T07:46:55;10.20;;;5.40;;
5077;SDS011;2557;51.390;7.494;2022-08-02T07:49:21;12.73;;;5.77;;
5077;SDS011;2557;51.390;7.494;2022-08-02T07:51:47;7.47;;;5.60;;
5077;SDS011;2557;51.390;7.494;2022-08-02T07:54:13;5.73;;;5.23;;
5077;SDS011;2557;51.390;7.494;2022-08-02T07:56:39;10.17;;;6.53;;
5077;SDS011;2557;51.390;7.494;2022-08-02T07:59:05;9.10;;;5.60;;
5077;SDS011;2557;51.390;7.494;2022-08-02T08:01:31;7.80;;;5.17;;
5077;SDS011;2557;51.390;7.494;2022-08-02T08:03:57;5.20;;;4.70;;
5077;SDS011;2557;51.390;7.494;2022-08-02T08:06:23;8.40;;;4.57;;
5077;SDS011;2557;51.390;7.494;2022-08-02T08:08:49;9.93;;;5.07;;
5077;SDS011;2557;51.390;7.494;2022-08-02T08:11:15;3.07;;;2.80;;
5077;SDS011;2557;51.390;7.494;2022-08-02T08:13:41;5.10;;;3.17;;
5077;SDS011;2557;51.390;7.494;2022-08-02T08:16:07;5.47;;;3.97;;
5077;SDS011;2557;51.390;7.494;2022-08-02T08:18:34;8.43;;;3.37;;
5077;SDS011;2557;51.390;7.494;2022-08-02T08:21:00;4.03;;;3.63;;
5077;SDS011;2557;51.390;7.494;2022-08-02T08:23:26;4.33;;;2.93;;
5077;SDS011;2557;51.390;7.494;2022-08-02T08:25:52;3.33;;;3.03;;
5077;SDS011;2557;51.390;7.494;2022-08-02T08:28:18;3.07;;;2.80;;
5077;SDS011;2557;51.390;7.494;2022-08-02T08:30:44;5.80;;;3.30;;
5077;SDS011;2557;51.390;7.494;2022-08-02T08:33:11;5.63;;;2.63;;
5077;SDS011;2557;51.390;7.494;2022-08-02T08:35:37;3.13;;;2.83;;
5077;SDS011;2557;51.390;7.494;2022-08-02T08:38:03;4.97;;;2.90;;
5077;SDS011;2557;51.390;7.494;2022-08-02T08:40:29;3.83;;;2.50;;
5077;SDS011;2557;51.390;7.494;2022-08-02T08:42:56;5.50;;;3.20;;
5077;SDS011;2557;51.390;7.494;2022-08-02T08:45:22;3.07;;;2.20;;
5077;SDS011;2557;51.390;7.494;2022-08-02T08:47:51;5.20;;;2.30;;
5077;SDS011;2557;51.390;7.494;2022-08-02T08:50:22;3.73;;;2.27;;
5077;SDS011;2557;51.390;7.494;2022-08-02T08:55:21;3.10;;;2.80;;
5077;SDS011;2557;51.390;7.494;2022-08-02T08:57:48;2.40;;;2.30;;
5077;SDS011;2557;51.390;7.494;2022-08-02T09:00:15;2.83;;;2.63;;
5077;SDS011;2557;51.390;7.494;2022-08-02T09:02:42;2.67;;;2.30;;
5077;SDS011;2557;51.390;7.494;2022-08-02T09:05:12;2.30;;;2.10;;
5077;SDS011;2557;51.390;7.494;2022-08-02T09:07:38;3.50;;;3.10;;
5077;SDS011;2557;51.390;7.494;2022-08-02T09:15:32;2.63;;;2.30;;
5077;SDS011;2557;51.390;7.494;2022-08-02T09:17:58;5.40;;;2.33;;
5077;SDS011;2557;51.390;7.494;2022-08-02T09:20:24;3.03;;;2.70;;
5077;SDS011;2557;51.390;7.494;2022-08-02T09:25:32;2.50;;;2.30;;
5077;SDS011;2557;51.390;7.494;2022-08-02T09:27:58;4.10;;;2.70;;
5077;SDS011;2557;51.390;7.494;2022-08-02T09:30:27;2.10;;;2.00;;
5077;SDS011;2557;51.390;7.494;2022-08-02T09:32:53;3.10;;;2.77;;
5077;SDS011;2557;51.390;7.494;2022-08-02T09:35:35;3.67;;;2.57;;
5077;SDS011;2557;51.390;7.494;2022-08-02T09:38:09;2.80;;;2.60;;
5077;SDS011;2557;51.390;7.494;2022-08-02T09:40:36;2.60;;;2.40;;
5077;SDS011;2557;51.390;7.494;2022-08-02T09:43:03;2.90;;;2.60;;
5077;SDS011;2557;51.390;7.494;2022-08-02T09:45:29;4.17;;;3.00;;
5077;SDS011;2557;51.390;7.494;2022-08-02T09:47:56;4.40;;;3.00;;
5077;SDS011;2557;51.390;7.494;2022-08-02T09:50:22;3.80;;;3.37;;
5077;SDS011;2557;51.390;7.494;2022-08-02T09:52:48;2.80;;;2.60;;
5077;SDS011;2557;51.390;7.494;2022-08-02T09:55:14;4.27;;;2.97;;
5077;SDS011;2557;51.390;7.494;2022-08-02T09:57:40;4.60;;;3.27;;
5077;SDS011;2557;51.390;7.494;2022-08-02T10:00:07;4.10;;;3.13;;
5077;SDS011;2557;51.390;7.494;2022-08-02T10:02:37;2.60;;;2.40;;
5077;SDS011;2557;51.390;7.494;2022-08-02T10:05:03;3.20;;;2.90;;
5077;SDS011;2557;51.390;7.494;2022-08-02T10:07:30;5.27;;;3.40;;
5077;SDS011;2557;51.390;7.494;2022-08-02T10:09:56;3.10;;;2.73;;
5077;SDS011;2557;51.390;7.494;2022-08-02T10:12:22;4.07;;;2.70;;
5077;SDS011;2557;51.390;7.494;2022-08-02T10:14:51;3.50;;;3.30;;
5077;SDS011;2557;51.390;7.494;2022-08-02T10:17:20;3.57;;;3.00;;
5077;SDS011;2557;51.390;7.494;2022-08-02T10:19:46;4.00;;;3.70;;
5077;SDS011;2557;51.390;7.494;2022-08-02T10:22:13;2.70;;;2.50;;
5077;SDS011;2557;51.390;7.494;2022-08-02T10:24:40;3.50;;;3.20;;
5077;SDS011;2557;51.390;7.494;2022-08-02T10:27:10;3.07;;;2.87;;
5077;SDS011;2557;51.390;7.494;2022-08-02T10:29:39;9.53;;;3.20;;
5077;SDS011;2557;51.390;7.494;2022-08-02T10:32:06;3.13;;;2.93;;
5077;SDS011;2557;51.390;7.494;2022-08-02T10:34:37;3.17;;;2.87;;
5077;SDS011;2557;51.390;7.494;2022-08-02T10:37:05;3.40;;;2.60;;
5077;SDS011;2557;51.390;7.494;2022-08-02T10:39:39;3.00;;;2.80;;
5077;SDS011;2557;51.390;7.494;2022-08-02T10:42:06;6.17;;;2.73;;
5077;SDS011;2557;51.390;7.494;2022-08-02T10:44:32;3.23;;;2.93;;
5077;SDS011;2557;51.390;7.494;2022-08-02T10:49:59;2.80;;;2.43;;
5077;SDS011;2557;51.390;7.494;2022-08-02T10:52:30;2.87;;;2.40;;
5077;SDS011;2557;51.390;7.494;2022-08-02T10:54:59;5.27;;;2.20;;
5077;SDS011;2557;51.390;7.494;2022-08-02T10:57:30;4.20;;;2.50;;
5077;SDS011;2557;51.390;7.494;2022-08-02T11:00:01;2.77;;;2.27;;
5077;SDS011;2557;51.390;7.494;2022-08-02T11:05:04;2.50;;;2.40;;
5077;SDS011;2557;51.390;7.494;2022-08-02T11:07:32;2.30;;;2.13;;
5077;SDS011;2557;51.390;7.494;2022-08-02T11:09:58;3.13;;;2.03;;
5077;SDS011;2557;51.390;7.494;2022-08-02T11:12:24;2.70;;;2.23;;
5077;SDS011;2557;51.390;7.494;2022-08-02T11:15:02;3.50;;;1.87;;
5077;SDS011;2557;51.390;7.494;2022-08-02T11:17:50;2.20;;;2.00;;
5077;SDS011;2557;51.390;7.494;2022-08-02T11:20:15;2.07;;;1.87;;
5077;SDS011;2557;51.390;7.494;2022-08-02T11:22:42;1.77;;;1.67;;
5077;SDS011;2557;51.390;7.494;2022-08-02T11:27:50;3.30;;;2.47;;
5077;SDS011;2557;51.390;7.494;2022-08-02T11:30:16;4.50;;;2.43;;
5077;SDS011;2557;51.390;7.494;2022-08-02T11:32:42;2.10;;;2.00;;
5077;SDS011;2557;51.390;7.494;2022-08-02T11:35:08;2.47;;;2.37;;
5077;SDS011;2557;51.390;7.494;2022-08-02T11:40:01;2.47;;;2.10;;
5077;SDS011;2557;51.390;7.494;2022-08-02T11:42:30;2.57;;;2.00;;
5077;SDS011;2557;51.390;7.494;2022-08-02T11:44:57;2.90;;;2.63;;
5077;SDS011;2557;51.390;7.494;2022-08-02T11:47:23;9.50;;;3.10;;
5077;SDS011;2557;51.390;7.494;2022-08-02T11:49:49;5.60;;;2.80;;
5077;SDS011;2557;51.390;7.494;2022-08-02T11:52:15;2.63;;;2.37;;
5077;SDS011;2557;51.390;7.494;2022-08-02T11:54:42;2.20;;;2.10;;
5077;SDS011;2557;51.390;7.494;2022-08-02T11:57:15;2.50;;;2.30;;
5077;SDS011;2557;51.390;7.494;2022-08-02T11:59:43;2.60;;;2.10;;
5077;SDS011;2557;51.390;7.494;2022-08-02T12:02:09;3.57;;;2.07;;
5077;SDS011;2557;51.390;7.494;2022-08-02T12:04:35;4.80;;;2.50;;
5077;SDS011;2557;51.390;7.494;2022-08-02T12:07:02;3.73;;;2.60;;
5077;SDS011;2557;51.390;7.494;2022-08-02T12:09:29;3.43;;;2.80;;
5077;SDS011;2557;51.390;7.494;2022-08-02T12:11:56;2.97;;;2.73;;
5077;SDS011;2557;51.390;7.494;2022-08-02T12:14:23;3.00;;;2.70;;
5077;SDS011;2557;51.390;7.494;2022-08-02T12:16:50;3.03;;;2.80;;
5077;SDS011;2557;51.390;7.494;2022-08-02T12:19:35;3.47;;;2.53;;
5077;SDS011;2557;51.390;7.494;2022-08-02T12:24:40;3.90;;;3.43;;
5077;SDS011;2557;51.390;7.494;2022-08-02T12:27:06;3.10;;;2.90;;
5077;SDS011;2557;51.390;7.494;2022-08-02T12:29:33;3.03;;;2.83;;
5077;SDS011;2557;51.390;7.494;2022-08-02T12:31:59;3.73;;;2.87;;
5077;SDS011;2557;51.390;7.494;2022-08-02T12:34:26;3.27;;;2.70;;
5077;SDS011;2557;51.390;7.494;2022-08-02T12:36:56;3.20;;;3.00;;
5077;SDS011;2557;51.390;7.494;2022-08-02T12:39:31;3.13;;;2.90;;
5077;SDS011;2557;51.390;7.494;2022-08-02T12:41:58;3.53;;;3.20;;
5077;SDS011;2557;51.390;7.494;2022-08-02T12:44:24;5.00;;;2.93;;
5077;SDS011;2557;51.390;7.494;2022-08-02T12:49:25;3.10;;;2.80;;
5077;SDS011;2557;51.390;7.494;2022-08-02T12:51:51;3.60;;;3.30;;
5077;SDS011;2557;51.390;7.494;2022-08-02T12:54:18;2.77;;;2.50;;
5077;SDS011;2557;51.390;7.494;2022-08-02T12:56:45;3.60;;;3.33;;
5077;SDS011;2557;51.390;7.494;2022-08-02T12:59:12;3.87;;;3.47;;
5077;SDS011;2557;51.390;7.494;2022-08-02T13:01:39;3.97;;;3.03;;
5077;SDS011;2557;51.390;7.494;2022-08-02T13:04:05;3.90;;;2.90;;
5077;SDS011;2557;51.390;7.494;2022-08-02T13:06:31;3.07;;;2.87;;
5077;SDS011;2557;51.390;7.494;2022-08-02T13:08:57;4.33;;;2.50;;
5077;SDS011;2557;51.390;7.494;2022-08-02T13:11:24;2.97;;;2.77;;
5077;SDS011;2557;51.390;7.494;2022-08-02T13:13:50;9.60;;;3.00;;
5077;SDS011;2557;51.390;7.494;2022-08-02T13:16:16;3.50;;;3.30;;
5077;SDS011;2557;51.390;7.494;2022-08-02T13:18:42;4.87;;;3.10;;
5077;SDS011;2557;51.390;7.494;2022-08-02T13:21:10;5.27;;;3.20;;
5077;SDS011;2557;51.390;7.494;2022-08-02T13:23:36;7.87;;;3.13;;
5077;SDS011;2557;51.390;7.494;2022-08-02T13:26:03;3.10;;;2.90;;
5077;SDS011;2557;51.390;7.494;2022-08-02T13:28:29;2.90;;;2.70;;
5077;SDS011;2557;51.390;7.494;2022-08-02T13:30:55;3.20;;;2.90;;
5077;SDS011;2557;51.390;7.494;2022-08-02T13:33:21;5.93;;;2.80;;
5077;SDS011;2557;51.390;7.494;2022-08-02T13:35:47;3.60;;;3.23;;
5077;SDS011;2557;51.390;7.494;2022-08-02T13:38:13;4.20;;;2.77;;
5077;SDS011;2557;51.390;7.494;2022-08-02T13:40:40;3.00;;;2.70;;
5077;SDS011;2557;51.390;7.494;2022-08-02T13:43:25;5.37;;;2.90;;
5077;SDS011;2557;51.390;7.494;2022-08-02T13:45:51;2.63;;;2.53;;
5077;SDS011;2557;51.390;7.494;2022-08-02T13:48:17;2.80;;;2.60;;
5077;SDS011;2557;51.390;7.494;2022-08-02T13:50:44;3.33;;;3.03;;
5077;SDS011;2557;51.390;7.494;2022-08-02T13:53:10;2.93;;;2.60;;
5077;SDS011;2557;51.390;7.494;2022-08-02T13:55:36;3.43;;;3.13;;
5077;SDS011;2557;51.390;7.494;2022-08-02T13:58:03;4.07;;;3.07;;
5077;SDS011;2557;51.390;7.494;2022-08-02T14:00:29;6.53;;;3.20;;
5077;SDS011;2557;51.390;7.494;2022-08-02T14:02:55;3.30;;;2.70;;
5077;SDS011;2557;51.390;7.494;2022-08-02T14:05:21;2.90;;;2.70;;
5077;SDS011;2557;51.390;7.494;2022-08-02T14:07:54;2.60;;;2.50;;
5077;SDS011;2557;51.390;7.494;2022-08-02T14:10:20;5.33;;;3.07;;
5077;SDS011;2557;51.390;7.494;2022-08-02T14:12:46;3.77;;;3.23;;
5077;SDS011;2557;51.390;7.494;2022-08-02T14:15:12;3.70;;;2.90;;
5077;SDS011;2557;51.390;7.494;2022-08-02T14:17:38;3.50;;;3.30;;
5077;SDS011;2557;51.390;7.494;2022-08-02T14:20:04;3.57;;;3.27;;
5077;SDS011;2557;51.390;7.494;2022-08-02T14:22:30;7.10;;;3.70;;
5077;SDS011;2557;51.390;7.494;2022-08-02T14:24:56;4.10;;;3.37;;
5077;SDS011;2557;51.390;7.494;2022-08-02T14:27:22;2.97;;;2.67;;
5077;SDS011;2557;51.390;7.494;2022-08-02T14:29:48;3.30;;;3.10;;
5077;SDS011;2557;51.390;7.494;2022-08-02T14:32:15;3.07;;;2.87;;
5077;SDS011;2557;51.390;7.494;2022-08-02T14:34:41;5.40;;;3.30;;
5077;SDS011;2557;51.390;7.494;2022-08-02T14:37:10;5.27;;;3.20;;
5077;SDS011;2557;51.390;7.494;2022-08-02T14:39:36;3.23;;;2.93;;
5077;SDS011;2557;51.390;7.494;2022-08-02T14:42:02;3.47;;;2.60;;
5077;SDS011;2557;51.390;7.494;2022-08-02T14:44:28;3.93;;;3.20;;
5077;SDS011;2557;51.390;7.494;2022-08-02T14:46:54;5.33;;;3.17;;
5077;SDS011;2557;51.390;7.494;2022-08-02T14:49:21;3.47;;;3.20;;
5077;SDS011;2557;51.390;7.494;2022-08-02T14:51:47;3.63;;;3.10;;
5077;SDS011;2557;51.390;7.494;2022-08-02T14:54:13;4.00;;;2.87;;
5077;SDS011;2557;51.390;7.494;2022-08-02T14:56:39;2.90;;;2.70;;
5077;SDS011;2557;51.390;7.494;2022-08-02T14:59:05;3.73;;;2.90;;
5077;SDS011;2557;51.390;7.494;2022-08-02T15:01:32;4.60;;;2.83;;
5077;SDS011;2557;51.390;7.494;2022-08-02T15:03:58;3.53;;;2.87;;
5077;SDS011;2557;51.390;7.494;2022-08-02T15:06:24;2.90;;;2.70;;
5077;SDS011;2557;51.390;7.494;2022-08-02T15:08:57;2.70;;;2.50;;
5077;SDS011;2557;51.390;7.494;2022-08-02T15:11:23;6.20;;;2.80;;
5077;SDS011;2557;51.390;7.494;2022-08-02T15:13:49;2.97;;;2.70;;
5077;SDS011;2557;51.390;7.494;2022-08-02T15:16:15;3.13;;;2.93;;
5077;SDS011;2557;51.390;7.494;2022-08-02T15:18:41;3.40;;;2.70;;
5077;SDS011;2557;51.390;7.494;2022-08-02T15:21:07;2.60;;;2.40;;
5077;SDS011;2557;51.390;7.494;2022-08-02T15:23:34;2.63;;;2.43;;
5077;SDS011;2557;51.390;7.494;2022-08-02T15:26:01;3.70;;;2.50;;
5077;SDS011;2557;51.390;7.494;2022-08-02T15:28:27;3.50;;;2.80;;
5077;SDS011;2557;51.390;7.494;2022-08-02T15:30:55;3.17;;;2.97;;
5077;SDS011;2557;51.390;7.494;2022-08-02T15:33:21;3.90;;;2.80;;
5077;SDS011;2557;51.390;7.494;2022-08-02T15:35:48;2.83;;;2.63;;
5077;SDS011;2557;51.390;7.494;2022-08-02T15:38:14;7.03;;;3.20;;
5077;SDS011;2557;51.390;7.494;2022-08-02T15:40:40;2.83;;;2.63;;
5077;SDS011;2557;51.390;7.494;2022-08-02T15:43:07;2.90;;;2.70;;
5077;SDS011;2557;51.390;7.494;2022-08-02T15:45:33;2.87;;;2.60;;
5077;SDS011;2557;51.390;7.494;2022-08-02T15:47:59;3.17;;;2.90;;
5077;SDS011;2557;51.390;7.494;2022-08-02T15:50:25;2.90;;;2.70;;
5077;SDS011;2557;51.390;7.494;2022-08-02T15:52:51;4.20;;;3.17;;